Leavenworth, WA

8:06 AM PST on December 10, 2016 (GMT -0800)
Ski View Condos | | Change Station
Active Advisory: Winter Weather Advisory

Elev 1247 ft 47.61 °N, 120.66 °W | Updated 6 seconds ago

Mostly Cloudy
Mostly Cloudy
12.2 °F
Feels Like 12 °F
N
0.0
Wind Variable Wind from WSW
Gusts 0.0 mph

Today
High -- | Low -- °F
--% Chance of Precip.
Yesterday
High -- | Low -- °F
Precip. -- in
Pressure 29.97 in
Visibility 10.0 miles
Clouds Overcast 500 ft
Windchill 12 °F
Dew Point 6 °F
Humidity 75%
Rainfall 0.00 in
Snow Depth Not available.
7:40 AM 4:11 PM
Waxing Gibbous, 84% visible
METAR KEAT 101555Z AUTO 00000KT 10SM OVC005 M10/M11 A2991 RMK AO2 SLP149 I1000 T11001111
Pressure 29.97 in
Visibility 10.0 miles
Clouds Overcast 500 ft
Windchill 12 °F
Dew Point 6 °F
Humidity 75%
Rainfall 0.00 in
Snow Depth Not available.
7:40 AM 4:11 PM
Waxing Gibbous, 84% visible
METAR KEAT 101555Z AUTO 00000KT 10SM OVC005 M10/M11 A2991 RMK AO2 SLP149 I1000 T11001111

10-Day Weather Forecast

Almanac

Astronomy

Dec. 10, 2016 Rise Set
Actual Time
Civil Twilight
Nautical Twilight
Astronomical Twilight
Moon
Length of Visible Light
Length of Day
Tomorrow will be .
, % of the Moon is Illuminated

Today's Extremes

State Highs State Lows

Community

WunderPhotos

Upload Photos

1,956,569 photos uploaded!

WunderBlog® & News

Nearby

Air Quality

  Air Quality AQ Index Pollutant
Not available.

Snow Depth

Station Depth Elevation

Earthquake Activity

City Distance Mag. Time & Date
Minimum magnitude displayed is 2.5.

Coastal Water Temperatures

Place Temperature

Stations

Nearby Weather Stations

Station Location Temp. Windchill Dew Point Humidity Wind Precip. Elev Updated Type
                   

Watches & Warnings

Winter Weather Advisory
Issued: 3:57 AM PST Dec. 10, 2016 – National Weather Service

... Winter Weather Advisory now in effect until 10 am PST this
morning...

* locations... Stehekin... Lake Wenatchee... Blewett Pass

* snow accumulations... up to an additional 3 inches mainly near the
Cascade crest. Storm total snow accumulations 2 to 6 valley and 6 to 12
inches mountains... especially near the Cascade crest.

* Timing... now through Saturday afternoon.

* Impacts... hazardous travel can be expected due to snow covered
roads and reduced visibility.

* Web page: for a detailed view of the hazard area visit
http://www.Wrh.NOAA.Gov/map/?Wfo=otx.

Precautionary/preparedness actions...

A Winter Weather Advisory for snow means that periods of snow
will cause primarily travel difficulties. Be prepared for snow
covered roads and limited visibilities... and use caution while
driving.